createdAt,value
2022-08-22T00:01:07.670Z,20.21
2022-08-22T00:02:42.673Z,22.27
2022-08-22T00:03:15.576Z,20.22
2022-08-22T00:03:15.794Z,20.60
2022-08-22T00:03:52.182Z,20.09
2022-08-22T00:06:38.050Z,20.43
2022-08-22T00:09:24.620Z,20.61
2022-08-22T00:12:04.264Z,20.34
2022-08-22T00:14:50.345Z,20.42
2022-08-22T00:17:27.899Z,20.47
2022-08-22T00:20:10.888Z,20.34
2022-08-22T00:23:07.739Z,20.10
2022-08-22T00:25:45.032Z,20.13
2022-08-22T00:28:23.395Z,20.20
2022-08-22T00:30:52.840Z,20.44
2022-08-22T00:33:46.742Z,20.85
2022-08-22T00:36:31.089Z,20.70
2022-08-22T00:39:15.211Z,20.48
2022-08-22T00:42:08.659Z,20.47
2022-08-22T00:45:03.072Z,19.85
2022-08-22T00:48:03.661Z,19.69
2022-08-22T00:51:09.639Z,19.70
2022-08-22T00:53:40.349Z,20.33
2022-08-22T00:56:31.558Z,20.16
2022-08-22T00:59:24.187Z,20.34
2022-08-22T01:02:09.903Z,20.20
2022-08-22T01:05:08.568Z,20.08
2022-08-22T01:07:41.556Z,20.23
2022-08-22T01:10:34.171Z,20.49
2022-08-22T01:13:17.140Z,20.23
2022-08-22T01:15:45.053Z,20.26
2022-08-22T01:18:27.670Z,20.38
2022-08-22T01:21:24.378Z,20.41
2022-08-22T01:24:07.254Z,20.28
2022-08-22T01:27:00.654Z,20.42
2022-08-22T01:29:43.284Z,20.47
2022-08-22T01:32:43.043Z,20.41
2022-08-22T01:35:16.442Z,20.53
2022-08-22T01:38:03.154Z,20.49
2022-08-22T01:41:02.093Z,20.35
2022-08-22T01:43:59.995Z,20.19
2022-08-22T01:46:28.568Z,20.54
2022-08-22T01:49:13.003Z,20.35
2022-08-22T01:51:48.581Z,20.17
2022-08-22T01:54:25.521Z,20.50
2022-08-22T01:56:59.890Z,20.60
2022-08-22T01:59:36.245Z,20.83
2022-08-22T02:02:57.478Z,21.18
2022-08-22T02:05:50.420Z,21.01
2022-08-22T02:08:38.439Z,21.06
2022-08-22T02:11:12.662Z,21.07
2022-08-22T02:14:00.446Z,20.90
2022-08-22T02:16:31.261Z,21.29
2022-08-22T02:19:14.032Z,21.11
2022-08-22T02:21:44.079Z,20.97
2022-08-22T02:24:29.388Z,20.97
2022-08-22T02:27:27.199Z,21.07
2022-08-22T02:30:15.690Z,21.28
2022-08-22T02:32:52.054Z,21.49
2022-08-22T02:35:29.034Z,21.18
2022-08-22T02:38:19.733Z,21.18
2022-08-22T02:41:05.142Z,21.29
2022-08-22T02:43:46.700Z,20.93
2022-08-22T02:46:23.547Z,21.46
2022-08-22T02:49:45.878Z,21.49
2022-08-22T02:52:34.163Z,21.52
2022-08-22T02:55:07.243Z,21.48
2022-08-22T02:57:52.762Z,21.63
2022-08-22T03:00:31.512Z,21.35
2022-08-22T03:03:17.206Z,21.30
2022-08-22T03:05:44.851Z,21.46
2022-08-22T03:08:22.247Z,21.36
2022-08-22T03:11:09.132Z,21.64
2022-08-22T03:14:07.513Z,21.33
2022-08-22T03:17:13.082Z,21.51
2022-08-22T03:19:46.702Z,21.42
2022-08-22T03:22:26.689Z,21.38
2022-08-22T03:25:10.588Z,21.58
2022-08-22T03:27:48.297Z,21.41
2022-08-22T03:30:37.126Z,21.54
2022-08-22T03:33:20.228Z,21.43
2022-08-22T03:35:47.551Z,21.60
2022-08-22T03:38:15.174Z,21.56
2022-08-22T03:41:10.049Z,21.71
2022-08-22T03:43:56.060Z,21.37
2022-08-22T03:47:02.103Z,21.37
2022-08-22T03:49:43.603Z,21.43
2022-08-22T03:52:29.081Z,21.59
2022-08-22T03:55:25.461Z,21.54
2022-08-22T03:58:28.015Z,21.50
2022-08-22T04:01:04.443Z,21.42
2022-08-22T04:03:41.633Z,21.41
2022-08-22T04:06:39.940Z,21.49
2022-08-22T04:09:32.145Z,21.49
2022-08-22T04:12:10.614Z,21.49
2022-08-22T04:14:58.113Z,21.54
2022-08-22T04:17:32.359Z,21.70
2022-08-22T04:20:29.361Z,21.61
2022-08-22T04:23:15.094Z,21.42
2022-08-22T04:25:48.814Z,21.27
2022-08-22T04:28:29.300Z,21.52
2022-08-22T04:31:17.555Z,21.58
2022-08-22T04:33:51.076Z,21.65
2022-08-22T04:36:30.415Z,21.25
2022-08-22T04:39:21.399Z,21.72
2022-08-22T04:41:54.169Z,21.72
2022-08-22T04:44:30.187Z,21.83
2022-08-22T04:47:07.137Z,21.91
2022-08-22T04:49:43.739Z,22.03
2022-08-22T04:52:35.855Z,21.98
2022-08-22T04:55:29.147Z,21.88
2022-08-22T04:58:33.410Z,21.90
2022-08-22T05:01:14.789Z,22.06
2022-08-22T05:03:51.293Z,22.11
2022-08-22T05:06:20.558Z,22.10
2022-08-22T05:08:53.744Z,21.94
2022-08-22T05:11:23.420Z,22.00
2022-08-22T05:13:56.281Z,22.21
2022-08-22T05:16:28.497Z,22.26
2022-08-22T05:19:06.693Z,22.30
2022-08-22T05:21:36.271Z,22.44
2022-08-22T05:24:10.053Z,22.36
2022-08-22T05:26:42.800Z,22.46
2022-08-22T05:29:12.266Z,22.48
2022-08-22T05:32:02.017Z,22.29
2022-08-22T05:34:40.450Z,22.50
2022-08-22T05:37:21.114Z,22.46
2022-08-22T05:39:53.014Z,22.64
2022-08-22T05:42:30.244Z,22.57
2022-08-22T05:44:58.044Z,22.71
2022-08-22T05:47:37.236Z,22.79
2022-08-22T05:50:18.881Z,22.96
2022-08-22T05:53:10.003Z,22.68
2022-08-22T05:55:41.500Z,23.09
2022-08-22T05:58:39.977Z,23.19
2022-08-22T06:01:42.476Z,23.14
2022-08-22T06:04:35.932Z,23.23
2022-08-22T06:07:08.077Z,23.26
2022-08-22T06:09:47.851Z,23.25
2022-08-22T06:12:16.995Z,23.23
2022-08-22T06:15:20.988Z,23.28
2022-08-22T06:18:00.056Z,23.29
2022-08-22T06:20:50.151Z,23.24
2022-08-22T06:23:24.384Z,23.36
2022-08-22T06:25:53.478Z,23.55
2022-08-22T06:28:26.161Z,23.38
2022-08-22T06:30:55.800Z,23.51
2022-08-22T06:33:28.993Z,23.85
2022-08-22T06:36:30.594Z,23.50
2022-08-22T06:39:04.062Z,23.15
2022-08-22T06:41:35.689Z,23.56
2022-08-22T06:44:04.660Z,23.35
2022-08-22T06:46:35.761Z,23.53
2022-08-22T06:49:05.280Z,23.59
2022-08-22T06:51:35.931Z,23.81
2022-08-22T06:54:06.002Z,23.78
2022-08-22T06:56:52.747Z,23.71
2022-08-22T06:59:30.655Z,23.70
2022-08-22T07:02:10.502Z,23.89
2022-08-22T07:04:38.396Z,23.95
2022-08-22T07:07:08.730Z,23.73
2022-08-22T07:09:38.832Z,23.68
2022-08-22T07:12:20.530Z,24.03
2022-08-22T07:14:50.678Z,24.56
2022-08-22T07:17:22.148Z,24.41
2022-08-22T07:20:10.939Z,24.47
2022-08-22T07:22:38.738Z,24.38
2022-08-22T07:25:12.625Z,24.69
2022-08-22T07:27:51.508Z,24.53
2022-08-22T07:30:27.332Z,24.57
2022-08-22T07:33:24.908Z,24.31
2022-08-22T07:36:00.454Z,24.56
2022-08-22T07:38:43.980Z,24.54
2022-08-22T07:41:17.168Z,24.77
2022-08-22T07:43:48.722Z,24.68
2022-08-22T07:46:33.416Z,24.75
2022-08-22T07:49:21.428Z,24.70
2022-08-22T07:51:55.573Z,24.74
2022-08-22T07:54:27.356Z,24.88
2022-08-22T07:57:05.910Z,25.01
2022-08-22T08:06:36.933Z,25.19
2022-08-22T08:09:05.009Z,25.15
2022-08-22T08:11:36.479Z,25.05
2022-08-22T08:14:07.280Z,25.13
2022-08-22T08:17:02.240Z,25.18
2022-08-22T08:19:31.222Z,25.32
2022-08-22T08:21:59.257Z,25.28
2022-08-22T08:24:37.088Z,25.14
2022-08-22T08:27:32.503Z,25.25
2022-08-22T08:30:14.686Z,25.34
2022-08-22T08:32:48.219Z,25.45
2022-08-22T08:35:25.628Z,25.56
2022-08-22T08:38:19.867Z,25.59
2022-08-22T08:41:01.440Z,25.55
2022-08-22T08:43:47.952Z,25.56
2022-08-22T08:46:24.805Z,25.63
2022-08-22T08:49:12.726Z,25.47
2022-08-22T08:51:50.953Z,25.41
2022-08-22T08:54:57.645Z,25.42
2022-08-22T08:57:33.990Z,25.32
2022-08-22T09:00:14.362Z,25.31
2022-08-22T09:03:31.013Z,25.39
2022-08-22T09:06:15.380Z,25.45
2022-08-22T09:09:20.472Z,25.33
2022-08-22T09:11:57.602Z,25.37
2022-08-22T09:14:58.984Z,25.13
2022-08-22T09:18:05.663Z,25.20
2022-08-22T09:20:51.799Z,25.23
2022-08-22T09:23:59.014Z,25.37
2022-08-22T09:26:44.764Z,25.31
2022-08-22T09:29:36.048Z,25.35
2022-08-22T09:32:44.536Z,25.35
2022-08-22T09:35:49.641Z,25.36
2022-08-22T09:38:48.020Z,25.47
2022-08-22T09:41:35.104Z,25.62
2022-08-22T09:44:27.909Z,25.67
2022-08-22T09:47:15.538Z,25.68
2022-08-22T09:50:17.078Z,25.67
2022-08-22T09:52:45.618Z,25.75
2022-08-22T09:55:35.623Z,25.76
2022-08-22T09:58:16.542Z,25.80
2022-08-22T10:01:13.609Z,25.93
2022-08-22T10:04:19.730Z,26.01
2022-08-22T10:07:02.153Z,25.93
2022-08-22T10:09:57.504Z,25.93
2022-08-22T10:12:36.081Z,25.92
2022-08-22T10:15:30.553Z,25.74
2022-08-22T10:18:05.562Z,25.76
2022-08-22T10:20:50.502Z,25.89
2022-08-22T10:23:23.868Z,25.91
2022-08-22T10:26:22.981Z,26.08
2022-08-22T10:29:37.072Z,26.06
2022-08-22T10:32:35.064Z,25.91
2022-08-22T10:35:25.799Z,25.86
2022-08-22T10:37:59.427Z,26.10
2022-08-22T10:40:32.764Z,26.18
2022-08-22T10:43:15.105Z,26.22
2022-08-22T10:45:48.282Z,26.47
2022-08-22T10:48:44.437Z,26.18
2022-08-22T10:51:17.114Z,26.51
2022-08-22T10:54:32.888Z,26.43
2022-08-22T10:57:20.709Z,26.66
2022-08-22T11:00:25.555Z,26.70
2022-08-22T11:03:07.835Z,26.71
2022-08-22T11:05:50.161Z,26.78
2022-08-22T11:08:39.811Z,26.83
2022-08-22T11:11:26.137Z,26.82
2022-08-22T11:14:09.776Z,27.04
2022-08-22T11:17:12.021Z,27.26
2022-08-22T11:20:20.168Z,27.33
2022-08-22T11:23:23.878Z,27.22
2022-08-22T11:26:06.247Z,27.26
2022-08-22T11:28:57.018Z,27.28
2022-08-22T11:31:36.750Z,27.23
2022-08-22T11:34:20.451Z,27.04
2022-08-22T11:36:54.646Z,27.12
2022-08-22T11:39:58.076Z,27.09
2022-08-22T11:43:04.889Z,27.27
2022-08-22T11:45:45.864Z,26.92
2022-08-22T11:48:30.100Z,27.25
2022-08-22T11:51:14.224Z,27.18
2022-08-22T11:54:02.872Z,27.37
2022-08-22T11:56:53.281Z,27.45
2022-08-22T11:59:43.106Z,27.65
2022-08-22T12:02:19.507Z,27.65
2022-08-22T12:04:55.076Z,27.74
2022-08-22T12:07:29.613Z,27.66
2022-08-22T12:10:07.833Z,27.84
2022-08-22T12:13:01.345Z,27.72
2022-08-22T12:16:04.454Z,27.90
2022-08-22T12:18:45.714Z,27.80
2022-08-22T12:21:45.606Z,27.81
2022-08-22T12:24:54.776Z,27.86
2022-08-22T12:27:50.844Z,27.99
2022-08-22T12:30:54.619Z,27.89
2022-08-22T12:33:43.925Z,27.84
2022-08-22T12:36:23.131Z,27.97
2022-08-22T12:38:54.186Z,27.87
2022-08-22T12:42:01.377Z,27.91
2022-08-22T12:44:56.255Z,27.83
2022-08-22T12:48:05.482Z,27.80
2022-08-22T12:50:50.298Z,27.75
2022-08-22T12:53:59.567Z,27.89
2022-08-22T12:56:57.701Z,27.51
2022-08-22T12:59:26.600Z,27.34
2022-08-22T13:01:57.249Z,26.67
2022-08-22T13:04:33.219Z,26.69
2022-08-22T13:07:18.966Z,26.85
2022-08-22T13:09:53.048Z,26.81
2022-08-22T13:12:23.849Z,26.52
2022-08-22T13:15:20.708Z,26.53
2022-08-22T13:17:54.651Z,26.63
2022-08-22T13:20:28.209Z,26.80
2022-08-22T13:22:56.660Z,26.66
2022-08-22T13:25:26.641Z,26.53
2022-08-22T13:27:59.326Z,26.37
2022-08-22T13:30:39.522Z,26.17
2022-08-22T13:33:11.107Z,25.68
2022-08-22T13:35:52.018Z,25.87
2022-08-22T13:38:27.507Z,25.60
2022-08-22T13:40:56.978Z,25.84
2022-08-22T13:43:30.925Z,25.91
2022-08-22T13:46:03.876Z,26.05
2022-08-22T13:48:50.634Z,26.20
2022-08-22T13:51:36.651Z,26.27
2022-08-22T13:54:15.398Z,26.48
2022-08-22T13:57:07.944Z,26.69
2022-08-22T13:59:54.850Z,26.58
2022-08-22T14:02:49.133Z,26.15
2022-08-22T14:05:28.765Z,26.40
2022-08-22T14:08:01.435Z,26.52
2022-08-22T14:10:36.213Z,26.53
2022-08-22T14:13:29.769Z,26.70
2022-08-22T14:16:03.432Z,26.46
2022-08-22T14:18:45.536Z,25.25
2022-08-22T14:21:50.881Z,24.84
2022-08-22T14:24:33.180Z,25.30
2022-08-22T14:27:16.246Z,25.54
2022-08-22T14:29:53.828Z,25.84
2022-08-22T14:32:23.389Z,25.91
2022-08-22T14:35:02.267Z,25.55
2022-08-22T14:37:34.458Z,25.82
2022-08-22T14:40:27.192Z,25.63
2022-08-22T14:43:06.677Z,25.69
2022-08-22T14:45:38.560Z,25.44
2022-08-22T14:48:30.257Z,25.44
2022-08-22T14:51:13.079Z,25.36
2022-08-22T14:53:40.790Z,24.91
2022-08-22T14:56:18.149Z,25.27
2022-08-22T14:58:51.492Z,24.63
2022-08-22T15:01:21.987Z,24.66
2022-08-22T15:04:00.438Z,24.70
2022-08-22T15:06:37.094Z,25.09
2022-08-22T15:09:25.935Z,25.21
2022-08-22T15:11:53.454Z,25.26
2022-08-22T15:15:03.303Z,25.18
2022-08-22T15:17:43.988Z,25.34
2022-08-22T15:20:36.294Z,25.07
2022-08-22T15:23:21.363Z,25.40
2022-08-22T15:26:13.324Z,25.26
2022-08-22T15:28:52.333Z,24.91
2022-08-22T15:31:21.513Z,25.01
2022-08-22T15:33:51.920Z,24.64
2022-08-22T15:36:26.212Z,25.18
2022-08-22T15:39:28.970Z,24.85
2022-08-22T15:41:57.391Z,24.52
2022-08-22T15:44:33.550Z,24.33
2022-08-22T15:47:10.662Z,24.22
2022-08-22T15:49:58.516Z,24.56
2022-08-22T15:52:29.144Z,24.11
2022-08-22T15:55:10.790Z,24.11
2022-08-22T15:57:40.715Z,24.45
2022-08-22T16:00:33.208Z,24.15
2022-08-22T16:03:25.637Z,24.21
2022-08-22T16:05:56.986Z,23.50
2022-08-22T16:08:29.618Z,24.05
2022-08-22T16:11:03.879Z,23.77
2022-08-22T16:13:39.432Z,23.71
2022-08-22T16:16:45.583Z,23.76
2022-08-22T16:19:26.035Z,23.20
2022-08-22T16:21:54.245Z,23.77
2022-08-22T16:24:22.116Z,23.53
2022-08-22T16:26:50.119Z,23.26
2022-08-22T16:29:35.905Z,23.27
2022-08-22T16:32:11.587Z,23.21
2022-08-22T16:34:43.942Z,22.78
2022-08-22T16:37:17.815Z,22.91
2022-08-22T16:39:50.322Z,23.00
2022-08-22T16:42:25.188Z,23.10
2022-08-22T16:44:58.953Z,23.08
2022-08-22T16:47:41.808Z,22.97
2022-08-22T16:50:15.568Z,23.07
2022-08-22T16:52:58.562Z,22.81
2022-08-22T16:55:28.894Z,23.00
2022-08-22T16:58:55.770Z,23.03
2022-08-22T17:02:04.811Z,23.23
2022-08-22T17:05:07.066Z,22.81
2022-08-22T17:07:52.796Z,22.49
2022-08-22T17:10:39.147Z,22.38
2022-08-22T17:13:26.519Z,22.16
2022-08-22T17:16:17.426Z,22.44
2022-08-22T17:19:05.464Z,22.56
2022-08-22T17:21:40.527Z,22.58
2022-08-22T17:24:32.176Z,22.90
2022-08-22T17:27:28.995Z,23.08
2022-08-22T17:30:07.517Z,23.05
2022-08-22T17:33:13.473Z,23.33
2022-08-22T17:35:46.039Z,22.88
2022-08-22T17:38:45.824Z,23.10
2022-08-22T17:41:19.675Z,23.16
2022-08-22T17:43:57.944Z,22.89
2022-08-22T17:46:47.384Z,22.82
2022-08-22T17:49:28.923Z,23.23
2022-08-22T17:52:19.094Z,22.81
2022-08-22T17:54:58.721Z,22.66
2022-08-22T17:57:36.135Z,22.42
2022-08-22T18:00:17.154Z,22.70
2022-08-22T18:02:51.438Z,22.48
2022-08-22T18:05:25.095Z,22.42
2022-08-22T18:11:14.888Z,22.76
2022-08-22T18:14:09.566Z,22.53
2022-08-22T18:16:53.594Z,22.42
2022-08-22T18:20:04.276Z,22.83
2022-08-22T18:22:34.825Z,22.72
2022-08-22T18:25:21.284Z,22.89
2022-08-22T18:27:49.133Z,22.80
2022-08-22T18:30:23.965Z,22.72
2022-08-22T18:33:06.625Z,22.71
2022-08-22T18:35:45.175Z,22.91
2022-08-22T18:38:23.763Z,22.46
2022-08-22T18:40:59.852Z,22.57
2022-08-22T18:43:50.943Z,22.26
2022-08-22T18:46:39.914Z,22.27
2022-08-22T18:49:36.222Z,22.13
2022-08-22T18:52:16.809Z,22.44
2022-08-22T18:55:03.634Z,22.35
2022-08-22T18:58:09.580Z,22.33
2022-08-22T19:01:15.875Z,22.30
2022-08-22T19:04:02.970Z,22.57
2022-08-22T19:06:53.228Z,22.53
2022-08-22T19:09:47.395Z,22.40
2022-08-22T19:12:28.012Z,22.26
2022-08-22T19:15:34.878Z,22.44
2022-08-22T19:18:24.144Z,22.93
2022-08-22T19:21:41.228Z,22.36
2022-08-22T19:24:34.946Z,21.70
2022-08-22T19:27:18.582Z,21.98
2022-08-22T19:29:46.525Z,21.93
2022-08-22T19:33:00.783Z,21.95
2022-08-22T19:35:41.368Z,22.38
2022-08-22T19:38:52.397Z,22.15
2022-08-22T19:41:40.101Z,22.37
2022-08-22T19:44:20.277Z,22.08
2022-08-22T19:47:02.829Z,22.17
2022-08-22T19:49:34.530Z,22.06
2022-08-22T19:52:12.416Z,22.49
2022-08-22T19:55:06.808Z,22.38
2022-08-22T19:57:55.632Z,22.21
2022-08-22T20:00:41.495Z,22.34
2022-08-22T20:03:32.787Z,21.84
2022-08-22T20:06:13.795Z,22.34
2022-08-22T20:09:11.034Z,22.24
2022-08-22T20:11:54.621Z,22.12
2022-08-22T20:14:37.209Z,22.07
2022-08-22T20:17:34.544Z,22.25
2022-08-22T20:20:18.899Z,22.05
2022-08-22T20:23:14.064Z,22.34
2022-08-22T20:25:49.057Z,22.23
2022-08-22T20:28:46.207Z,22.35
2022-08-22T20:31:24.388Z,22.15
2022-08-22T20:34:07.144Z,21.80
2022-08-22T20:36:35.649Z,21.52
2022-08-22T20:39:08.798Z,21.91
2022-08-22T20:41:42.074Z,21.77
2022-08-22T20:44:13.109Z,21.76
2022-08-22T20:46:46.901Z,21.89
2022-08-22T20:49:28.891Z,21.94
2022-08-22T20:51:59.929Z,21.90
2022-08-22T20:54:34.081Z,21.92
2022-08-22T20:57:23.884Z,21.78
2022-08-22T21:00:14.256Z,21.61
2022-08-22T21:02:54.821Z,21.60
2022-08-22T21:05:32.908Z,21.71
2022-08-22T21:08:10.362Z,21.18
2022-08-22T21:10:57.839Z,21.61
2022-08-22T21:13:28.394Z,21.40
2022-08-22T21:16:00.185Z,21.66
2022-08-22T21:18:31.179Z,21.79
2022-08-22T21:21:25.554Z,21.69
2022-08-22T21:24:00.863Z,21.48
2022-08-22T21:26:33.296Z,21.50
2022-08-22T21:29:07.755Z,21.42
2022-08-22T21:31:53.827Z,21.62
2022-08-22T21:34:35.805Z,21.82
2022-08-22T21:37:09.160Z,21.79
2022-08-22T21:39:42.822Z,21.53
2022-08-22T21:42:38.542Z,21.71
2022-08-22T21:45:06.715Z,21.64
2022-08-22T21:47:37.034Z,21.42
2022-08-22T21:50:26.045Z,21.51
2022-08-22T21:52:53.654Z,21.49
2022-08-22T21:55:30.275Z,21.08
2022-08-22T21:58:07.162Z,21.29
2022-08-22T22:01:21.063Z,20.97
2022-08-22T22:03:54.096Z,21.21
2022-08-22T22:06:21.603Z,21.38
2022-08-22T22:08:49.191Z,21.49
2022-08-22T22:11:17.335Z,21.02
2022-08-22T22:13:45.292Z,20.96
2022-08-22T22:16:14.081Z,21.17
2022-08-22T22:18:44.230Z,21.26
2022-08-22T22:21:15.291Z,21.58
2022-08-22T22:23:50.830Z,21.81
2022-08-22T22:26:21.016Z,21.76
2022-08-22T22:28:50.218Z,21.81
2022-08-22T22:31:18.352Z,21.50
2022-08-22T22:33:46.090Z,21.61
2022-08-22T22:36:17.959Z,21.59
2022-08-22T22:38:48.376Z,21.66
2022-08-22T22:41:21.272Z,21.60
2022-08-22T22:43:48.709Z,21.14
2022-08-22T22:46:16.155Z,21.34
2022-08-22T22:48:43.960Z,21.36
2022-08-22T22:51:12.345Z,21.36
2022-08-22T22:53:40.321Z,21.48
2022-08-22T22:56:17.792Z,21.64
2022-08-22T22:58:50.728Z,21.59
2022-08-22T23:01:28.585Z,21.66
2022-08-22T23:03:57.567Z,21.60
2022-08-22T23:06:27.138Z,21.31
2022-08-22T23:08:57.919Z,20.94
2022-08-22T23:11:28.065Z,21.09
2022-08-22T23:13:56.116Z,21.15
2022-08-22T23:16:27.312Z,21.34
2022-08-22T23:18:55.309Z,21.59
2022-08-22T23:21:29.292Z,21.31
2022-08-22T23:23:58.642Z,21.58
2022-08-22T23:26:27.174Z,21.57
2022-08-22T23:28:54.947Z,21.74
2022-08-22T23:31:38.957Z,21.73
2022-08-22T23:34:08.934Z,21.72
2022-08-22T23:36:37.441Z,21.75
2022-08-22T23:39:06.455Z,21.51
2022-08-22T23:41:34.736Z,21.64
2022-08-22T23:44:04.666Z,21.63
2022-08-22T23:46:32.115Z,21.95
2022-08-22T23:49:01.818Z,21.62
2022-08-22T23:51:29.288Z,21.17
2022-08-22T23:53:57.652Z,21.38
2022-08-22T23:56:32.091Z,21.57
2022-08-22T23:59:01.446Z,21.58
